Aérodrome :
LOGIN :

S'inscrire | Disclaimer

   EN    FR    IT 

 










Légende :    VFR   VFR Marginal   IFR   IFR Intensif   IFR Très Intensif
Visi : 
Plafond : 
>= 8 km
>= 3000ft
5 à 8 km
1000 à 3000 ft
1500m à 5 km
500 à 1000 ft
800 à 1500m
200 à 500 ft
< 800m
< 200 ft
Symboles :   Orages  Brouillard  Fortes neiges  Fortes précipitations  Vent > 20 kt
SIGMETs :   Divers  Orages  Givrage  Turbulence  Onde Orograph.  Cendres Volcan.






- Altitude de l'aérodrome : 1860 ft
- Code IATA : GRX


LEGR - Granada

DERNIER METAR :
  • 272230Z AUTO VRB01KT CAVOK 10/01 Q1024

METARs EXPIRÉS :
  • 272200Z VRB03KT CAVOK 09/02 Q1024
  • 272130Z 25005KT CAVOK 10/02 Q1024
  • 272100Z 23003KT CAVOK 11/02 Q1024
  • 272030Z 27005KT 230V300 CAVOK 12/02 Q1024
  • 272000Z 24006KT CAVOK 12/03 Q1024

TAF TAF LEGR
Valide du 27 à 21h jusqu'au 28 à 21h UTC


272000Z 2721/2821 VRB02KT CAVOK TX23/2815Z TN01/2807Z
PROB40
TEMPO 2812/2817 19010KT



MET'MAP, la Météo Aéronautique d'un coup d'oeil ! - Copyright ORBIFLY Décembre 2007 - Disclaimer

ORBIFLY MET'MAP TEAM :

Programmation & Développement : Alexandra Zaïnal
Sur une idée originale de : Baudouin d'Aumeries
Assistance à la programmation : Marc-Olivier Méhu
Soutien technique & logistique : Manuel Goepfert

Contact : metmap@orbifly.com




SOURCES & CREDITS :

   NOAA